Art, Texas
Current Conditions -  °F | °C
As of 5:35 PM on Saturday 25 Oct 2014 (Local Time) from KBBD Reporting Station
Clear Clear  
Wind Chill: 88°   Ceiling: Unl
Heat Index: 88°   Visibility: 10mi
Dew Point: 54°   Wind: 7mph
Humidity: 31%   Direction: 180°S
Pressure: 30.09"   Gusts: NA
Location:  30.74°N, 99.11°W
Report Text: KBBD 252235Z AUTO 18006KT 10SM CLR 31/12 A3009 RMK
Loading
Personal Weather Stations






























Interactive Weather Map
Tropical Storm Tracking
New forecast layout! Learn more

10-Day Weather Forecast

Advertisements
Track Severe Weather on mobile